sensor_id;sensor_type;location;lat;lon;timestamp;P1;durP1;ratioP1;P2;durP2;ratioP2
15693;SDS011;7947;48.834;9.132;2022-08-25T00:02:57;3.58;;;2.65;;
15693;SDS011;7947;48.834;9.132;2022-08-25T00:06:16;3.05;;;2.70;;
15693;SDS011;7947;48.834;9.132;2022-08-25T00:09:26;2.97;;;2.42;;
15693;SDS011;7947;48.834;9.132;2022-08-25T00:12:29;3.55;;;2.58;;
15693;SDS011;7947;48.834;9.132;2022-08-25T00:15:33;3.15;;;2.63;;
15693;SDS011;7947;48.834;9.132;2022-08-25T00:18:37;3.13;;;2.60;;
15693;SDS011;7947;48.834;9.132;2022-08-25T00:21:42;3.13;;;2.72;;
15693;SDS011;7947;48.834;9.132;2022-08-25T00:24:46;3.28;;;2.17;;
15693;SDS011;7947;48.834;9.132;2022-08-25T00:27:48;4.28;;;3.00;;
15693;SDS011;7947;48.834;9.132;2022-08-25T00:30:52;5.30;;;2.75;;
15693;SDS011;7947;48.834;9.132;2022-08-25T00:33:56;3.08;;;2.78;;
15693;SDS011;7947;48.834;9.132;2022-08-25T00:37:00;2.80;;;2.60;;
15693;SDS011;7947;48.834;9.132;2022-08-25T00:40:05;3.65;;;2.83;;
15693;SDS011;7947;48.834;9.132;2022-08-25T00:43:09;3.45;;;2.85;;
15693;SDS011;7947;48.834;9.132;2022-08-25T00:46:14;2.90;;;2.40;;
15693;SDS011;7947;48.834;9.132;2022-08-25T00:49:23;3.28;;;2.42;;
15693;SDS011;7947;48.834;9.132;2022-08-25T00:52:30;4.03;;;2.97;;
15693;SDS011;7947;48.834;9.132;2022-08-25T00:55:36;5.57;;;2.97;;
15693;SDS011;7947;48.834;9.132;2022-08-25T00:58:41;6.65;;;3.00;;
15693;SDS011;7947;48.834;9.132;2022-08-25T01:01:46;3.97;;;2.80;;
15693;SDS011;7947;48.834;9.132;2022-08-25T01:04:51;3.75;;;2.95;;
15693;SDS011;7947;48.834;9.132;2022-08-25T01:07:55;4.85;;;2.80;;
15693;SDS011;7947;48.834;9.132;2022-08-25T01:11:01;4.35;;;2.40;;
15693;SDS011;7947;48.834;9.132;2022-08-25T01:14:06;3.42;;;2.42;;
15693;SDS011;7947;48.834;9.132;2022-08-25T01:17:12;3.15;;;2.80;;
15693;SDS011;7947;48.834;9.132;2022-08-25T01:20:18;3.30;;;3.00;;
15693;SDS011;7947;48.834;9.132;2022-08-25T01:23:29;2.78;;;2.45;;
15693;SDS011;7947;48.834;9.132;2022-08-25T01:26:33;3.72;;;2.80;;
15693;SDS011;7947;48.834;9.132;2022-08-25T01:29:37;2.55;;;2.35;;
15693;SDS011;7947;48.834;9.132;2022-08-25T01:32:40;3.85;;;3.15;;
15693;SDS011;7947;48.834;9.132;2022-08-25T01:35:43;3.25;;;2.60;;
15693;SDS011;7947;48.834;9.132;2022-08-25T01:38:48;5.53;;;2.60;;
15693;SDS011;7947;48.834;9.132;2022-08-25T01:42:06;4.97;;;2.55;;
15693;SDS011;7947;48.834;9.132;2022-08-25T01:45:20;3.97;;;2.90;;
15693;SDS011;7947;48.834;9.132;2022-08-25T01:48:23;3.05;;;2.75;;
15693;SDS011;7947;48.834;9.132;2022-08-25T01:51:27;3.83;;;2.53;;
15693;SDS011;7947;48.834;9.132;2022-08-25T01:54:35;2.67;;;2.47;;
15693;SDS011;7947;48.834;9.132;2022-08-25T01:57:39;3.30;;;2.47;;
15693;SDS011;7947;48.834;9.132;2022-08-25T02:00:43;3.70;;;3.30;;
15693;SDS011;7947;48.834;9.132;2022-08-25T02:03:48;3.42;;;3.13;;
15693;SDS011;7947;48.834;9.132;2022-08-25T02:06:53;2.92;;;2.70;;
15693;SDS011;7947;48.834;9.132;2022-08-25T02:09:57;3.58;;;2.80;;
15693;SDS011;7947;48.834;9.132;2022-08-25T02:13:03;2.95;;;2.67;;
15693;SDS011;7947;48.834;9.132;2022-08-25T02:16:09;2.85;;;2.63;;
15693;SDS011;7947;48.834;9.132;2022-08-25T02:19:16;3.00;;;2.70;;
15693;SDS011;7947;48.834;9.132;2022-08-25T02:22:20;3.63;;;2.95;;
15693;SDS011;7947;48.834;9.132;2022-08-25T02:25:24;3.38;;;2.90;;
15693;SDS011;7947;48.834;9.132;2022-08-25T02:28:27;3.17;;;2.88;;
15693;SDS011;7947;48.834;9.132;2022-08-25T02:31:30;4.90;;;3.00;;
15693;SDS011;7947;48.834;9.132;2022-08-25T02:34:33;2.70;;;2.47;;
15693;SDS011;7947;48.834;9.132;2022-08-25T02:37:37;5.93;;;3.10;;
15693;SDS011;7947;48.834;9.132;2022-08-25T02:40:41;4.10;;;2.90;;
15693;SDS011;7947;48.834;9.132;2022-08-25T02:43:44;3.88;;;2.63;;
15693;SDS011;7947;48.834;9.132;2022-08-25T02:46:48;4.55;;;2.55;;
15693;SDS011;7947;48.834;9.132;2022-08-25T02:49:52;3.72;;;3.33;;
15693;SDS011;7947;48.834;9.132;2022-08-25T02:52:55;3.47;;;3.17;;
15693;SDS011;7947;48.834;9.132;2022-08-25T02:56:00;4.03;;;3.22;;
15693;SDS011;7947;48.834;9.132;2022-08-25T02:59:03;4.25;;;2.72;;
15693;SDS011;7947;48.834;9.132;2022-08-25T03:02:06;4.47;;;3.03;;
15693;SDS011;7947;48.834;9.132;2022-08-25T03:05:10;3.40;;;3.10;;
15693;SDS011;7947;48.834;9.132;2022-08-25T03:08:15;3.83;;;3.05;;
15693;SDS011;7947;48.834;9.132;2022-08-25T03:11:19;3.38;;;2.72;;
15693;SDS011;7947;48.834;9.132;2022-08-25T03:14:23;4.05;;;3.55;;
15693;SDS011;7947;48.834;9.132;2022-08-25T03:17:26;3.33;;;2.85;;
15693;SDS011;7947;48.834;9.132;2022-08-25T03:20:30;4.43;;;2.95;;
15693;SDS011;7947;48.834;9.132;2022-08-25T03:23:36;4.78;;;3.33;;
15693;SDS011;7947;48.834;9.132;2022-08-25T03:26:40;4.50;;;3.20;;
15693;SDS011;7947;48.834;9.132;2022-08-25T03:29:54;4.63;;;3.42;;
15693;SDS011;7947;48.834;9.132;2022-08-25T03:33:00;3.35;;;3.05;;
15693;SDS011;7947;48.834;9.132;2022-08-25T03:36:03;3.75;;;3.40;;
15693;SDS011;7947;48.834;9.132;2022-08-25T03:39:07;4.60;;;3.80;;
15693;SDS011;7947;48.834;9.132;2022-08-25T03:42:12;4.43;;;3.50;;
15693;SDS011;7947;48.834;9.132;2022-08-25T03:45:15;4.93;;;3.28;;
15693;SDS011;7947;48.834;9.132;2022-08-25T03:48:19;4.35;;;3.85;;
15693;SDS011;7947;48.834;9.132;2022-08-25T03:51:23;3.70;;;3.40;;
15693;SDS011;7947;48.834;9.132;2022-08-25T03:54:29;3.80;;;3.40;;
15693;SDS011;7947;48.834;9.132;2022-08-25T03:57:33;4.53;;;3.80;;
15693;SDS011;7947;48.834;9.132;2022-08-25T04:00:36;4.25;;;3.40;;
15693;SDS011;7947;48.834;9.132;2022-08-25T04:03:40;3.92;;;3.53;;
15693;SDS011;7947;48.834;9.132;2022-08-25T04:06:43;4.75;;;3.75;;
15693;SDS011;7947;48.834;9.132;2022-08-25T04:09:47;5.57;;;3.70;;
15693;SDS011;7947;48.834;9.132;2022-08-25T04:12:52;4.28;;;3.83;;
15693;SDS011;7947;48.834;9.132;2022-08-25T04:15:56;3.97;;;3.58;;
15693;SDS011;7947;48.834;9.132;2022-08-25T04:18:59;4.22;;;3.47;;
15693;SDS011;7947;48.834;9.132;2022-08-25T04:22:04;3.85;;;3.42;;
15693;SDS011;7947;48.834;9.132;2022-08-25T04:25:08;5.35;;;3.28;;
15693;SDS011;7947;48.834;9.132;2022-08-25T04:28:12;3.90;;;3.30;;
15693;SDS011;7947;48.834;9.132;2022-08-25T04:31:15;5.07;;;3.67;;
15693;SDS011;7947;48.834;9.132;2022-08-25T04:34:22;4.05;;;3.25;;
15693;SDS011;7947;48.834;9.132;2022-08-25T04:37:31;6.65;;;3.97;;
15693;SDS011;7947;48.834;9.132;2022-08-25T04:40:34;3.97;;;3.58;;
15693;SDS011;7947;48.834;9.132;2022-08-25T04:43:39;5.97;;;3.92;;
15693;SDS011;7947;48.834;9.132;2022-08-25T04:46:44;5.32;;;4.10;;
15693;SDS011;7947;48.834;9.132;2022-08-25T04:49:47;6.72;;;4.13;;
15693;SDS011;7947;48.834;9.132;2022-08-25T04:52:50;5.53;;;3.22;;
15693;SDS011;7947;48.834;9.132;2022-08-25T04:55:54;4.97;;;3.50;;
15693;SDS011;7947;48.834;9.132;2022-08-25T04:59:05;4.05;;;3.65;;
15693;SDS011;7947;48.834;9.132;2022-08-25T05:02:10;5.82;;;3.40;;
15693;SDS011;7947;48.834;9.132;2022-08-25T05:05:14;5.60;;;4.05;;
15693;SDS011;7947;48.834;9.132;2022-08-25T05:08:17;5.88;;;3.78;;
15693;SDS011;7947;48.834;9.132;2022-08-25T05:11:20;5.90;;;3.55;;
15693;SDS011;7947;48.834;9.132;2022-08-25T05:14:25;6.15;;;3.80;;
15693;SDS011;7947;48.834;9.132;2022-08-25T05:17:29;7.63;;;3.38;;
15693;SDS011;7947;48.834;9.132;2022-08-25T05:20:34;6.50;;;3.90;;
15693;SDS011;7947;48.834;9.132;2022-08-25T05:23:38;4.55;;;3.67;;
15693;SDS011;7947;48.834;9.132;2022-08-25T05:26:42;8.25;;;4.20;;
15693;SDS011;7947;48.834;9.132;2022-08-25T05:29:46;5.18;;;4.20;;
15693;SDS011;7947;48.834;9.132;2022-08-25T05:32:50;6.82;;;3.90;;
15693;SDS011;7947;48.834;9.132;2022-08-25T05:35:54;5.47;;;3.72;;
15693;SDS011;7947;48.834;9.132;2022-08-25T05:38:57;4.70;;;4.20;;
15693;SDS011;7947;48.834;9.132;2022-08-25T05:42:00;6.40;;;4.05;;
15693;SDS011;7947;48.834;9.132;2022-08-25T05:45:05;4.70;;;3.97;;
15693;SDS011;7947;48.834;9.132;2022-08-25T05:48:15;11.07;;;4.32;;
15693;SDS011;7947;48.834;9.132;2022-08-25T05:51:18;8.13;;;3.85;;
15693;SDS011;7947;48.834;9.132;2022-08-25T05:54:22;3.90;;;3.20;;
15693;SDS011;7947;48.834;9.132;2022-08-25T05:57:25;5.60;;;3.60;;
15693;SDS011;7947;48.834;9.132;2022-08-25T06:00:32;5.40;;;3.60;;
15693;SDS011;7947;48.834;9.132;2022-08-25T06:03:35;5.45;;;3.95;;
15693;SDS011;7947;48.834;9.132;2022-08-25T06:06:37;6.07;;;4.10;;
15693;SDS011;7947;48.834;9.132;2022-08-25T06:09:41;5.13;;;4.30;;
15693;SDS011;7947;48.834;9.132;2022-08-25T06:12:46;9.20;;;5.07;;
15693;SDS011;7947;48.834;9.132;2022-08-25T06:15:55;9.05;;;4.50;;
15693;SDS011;7947;48.834;9.132;2022-08-25T06:18:59;7.07;;;4.82;;
15693;SDS011;7947;48.834;9.132;2022-08-25T06:22:02;8.20;;;5.38;;
15693;SDS011;7947;48.834;9.132;2022-08-25T06:25:05;8.90;;;5.22;;
15693;SDS011;7947;48.834;9.132;2022-08-25T06:28:09;5.90;;;5.30;;
15693;SDS011;7947;48.834;9.132;2022-08-25T06:31:13;6.82;;;4.95;;
15693;SDS011;7947;48.834;9.132;2022-08-25T06:34:17;11.15;;;5.40;;
15693;SDS011;7947;48.834;9.132;2022-08-25T06:37:24;7.63;;;5.20;;
15693;SDS011;7947;48.834;9.132;2022-08-25T06:40:27;8.70;;;4.80;;
15693;SDS011;7947;48.834;9.132;2022-08-25T06:43:31;9.43;;;4.90;;
15693;SDS011;7947;48.834;9.132;2022-08-25T06:46:35;5.72;;;4.57;;
15693;SDS011;7947;48.834;9.132;2022-08-25T06:49:39;7.85;;;3.85;;
15693;SDS011;7947;48.834;9.132;2022-08-25T06:52:42;5.85;;;4.05;;
15693;SDS011;7947;48.834;9.132;2022-08-25T06:55:54;5.25;;;3.55;;
15693;SDS011;7947;48.834;9.132;2022-08-25T06:58:59;7.00;;;4.03;;
15693;SDS011;7947;48.834;9.132;2022-08-25T07:02:04;5.40;;;3.95;;
15693;SDS011;7947;48.834;9.132;2022-08-25T07:05:08;5.32;;;4.13;;
15693;SDS011;7947;48.834;9.132;2022-08-25T07:08:21;5.32;;;4.55;;
15693;SDS011;7947;48.834;9.132;2022-08-25T07:11:24;5.47;;;4.75;;
15693;SDS011;7947;48.834;9.132;2022-08-25T07:14:29;6.78;;;4.97;;
15693;SDS011;7947;48.834;9.132;2022-08-25T07:17:33;8.27;;;4.72;;
15693;SDS011;7947;48.834;9.132;2022-08-25T07:20:36;5.22;;;4.72;;
15693;SDS011;7947;48.834;9.132;2022-08-25T07:23:40;6.68;;;4.70;;
15693;SDS011;7947;48.834;9.132;2022-08-25T07:26:45;5.78;;;4.95;;
15693;SDS011;7947;48.834;9.132;2022-08-25T07:29:48;5.28;;;4.72;;
15693;SDS011;7947;48.834;9.132;2022-08-25T07:32:52;6.80;;;4.38;;
15693;SDS011;7947;48.834;9.132;2022-08-25T07:35:56;6.10;;;5.00;;
15693;SDS011;7947;48.834;9.132;2022-08-25T07:38:58;5.70;;;5.10;;
15693;SDS011;7947;48.834;9.132;2022-08-25T07:42:05;4.40;;;4.00;;
15693;SDS011;7947;48.834;9.132;2022-08-25T07:45:12;6.40;;;4.90;;
15693;SDS011;7947;48.834;9.132;2022-08-25T07:48:22;5.75;;;4.72;;
15693;SDS011;7947;48.834;9.132;2022-08-25T07:51:25;6.80;;;4.47;;
15693;SDS011;7947;48.834;9.132;2022-08-25T07:54:28;5.38;;;4.75;;
15693;SDS011;7947;48.834;9.132;2022-08-25T07:57:35;5.95;;;4.90;;
15693;SDS011;7947;48.834;9.132;2022-08-25T08:00:40;6.68;;;4.78;;
15693;SDS011;7947;48.834;9.132;2022-08-25T08:03:45;7.55;;;4.82;;
15693;SDS011;7947;48.834;9.132;2022-08-25T08:06:51;5.55;;;4.45;;
15693;SDS011;7947;48.834;9.132;2022-08-25T08:09:54;4.80;;;4.30;;
15693;SDS011;7947;48.834;9.132;2022-08-25T08:13:17;5.47;;;4.10;;
15693;SDS011;7947;48.834;9.132;2022-08-25T08:16:22;7.55;;;4.70;;
15693;SDS011;7947;48.834;9.132;2022-08-25T08:19:28;4.78;;;4.25;;
15693;SDS011;7947;48.834;9.132;2022-08-25T08:22:31;5.38;;;4.53;;
15693;SDS011;7947;48.834;9.132;2022-08-25T08:25:34;5.15;;;4.45;;
15693;SDS011;7947;48.834;9.132;2022-08-25T08:28:36;4.63;;;4.15;;
15693;SDS011;7947;48.834;9.132;2022-08-25T08:31:39;4.55;;;4.00;;
15693;SDS011;7947;48.834;9.132;2022-08-25T08:34:50;5.85;;;4.75;;
15693;SDS011;7947;48.834;9.132;2022-08-25T08:37:53;5.63;;;4.60;;
15693;SDS011;7947;48.834;9.132;2022-08-25T08:40:59;5.10;;;4.18;;
15693;SDS011;7947;48.834;9.132;2022-08-25T08:44:40;5.47;;;4.65;;
15693;SDS011;7947;48.834;9.132;2022-08-25T08:47:58;6.20;;;4.15;;
15693;SDS011;7947;48.834;9.132;2022-08-25T08:51:23;5.63;;;4.05;;
15693;SDS011;7947;48.834;9.132;2022-08-25T08:54:34;4.45;;;4.10;;
15693;SDS011;7947;48.834;9.132;2022-08-25T08:57:42;4.55;;;4.07;;
15693;SDS011;7947;48.834;9.132;2022-08-25T09:00:51;4.78;;;4.13;;
15693;SDS011;7947;48.834;9.132;2022-08-25T09:03:58;5.75;;;4.38;;
15693;SDS011;7947;48.834;9.132;2022-08-25T09:07:12;5.07;;;4.57;;
15693;SDS011;7947;48.834;9.132;2022-08-25T09:10:21;6.05;;;4.40;;
15693;SDS011;7947;48.834;9.132;2022-08-25T09:13:28;5.70;;;4.28;;
15693;SDS011;7947;48.834;9.132;2022-08-25T09:16:41;4.32;;;3.95;;
15693;SDS011;7947;48.834;9.132;2022-08-25T09:20:01;5.30;;;4.10;;
15693;SDS011;7947;48.834;9.132;2022-08-25T09:23:24;4.55;;;4.07;;
15693;SDS011;7947;48.834;9.132;2022-08-25T09:26:36;5.35;;;4.57;;
15693;SDS011;7947;48.834;9.132;2022-08-25T09:29:49;4.57;;;4.05;;
15693;SDS011;7947;48.834;9.132;2022-08-25T09:33:00;7.38;;;4.50;;
15693;SDS011;7947;48.834;9.132;2022-08-25T09:36:06;4.97;;;4.28;;
15693;SDS011;7947;48.834;9.132;2022-08-25T09:39:10;4.75;;;4.35;;
15693;SDS011;7947;48.834;9.132;2022-08-25T09:42:14;4.22;;;3.88;;
15693;SDS011;7947;48.834;9.132;2022-08-25T09:45:31;5.38;;;3.72;;
15693;SDS011;7947;48.834;9.132;2022-08-25T09:48:43;5.18;;;3.45;;
15693;SDS011;7947;48.834;9.132;2022-08-25T09:51:57;5.00;;;3.42;;
15693;SDS011;7947;48.834;9.132;2022-08-25T09:55:26;4.93;;;3.78;;
15693;SDS011;7947;48.834;9.132;2022-08-25T09:58:35;4.88;;;3.33;;
15693;SDS011;7947;48.834;9.132;2022-08-25T10:01:44;6.78;;;3.53;;
15693;SDS011;7947;48.834;9.132;2022-08-25T10:04:50;4.15;;;3.40;;
15693;SDS011;7947;48.834;9.132;2022-08-25T10:07:53;5.35;;;3.65;;
15693;SDS011;7947;48.834;9.132;2022-08-25T10:11:01;6.70;;;3.72;;
15693;SDS011;7947;48.834;9.132;2022-08-25T10:14:15;3.38;;;3.08;;
15693;SDS011;7947;48.834;9.132;2022-08-25T10:17:23;6.80;;;3.50;;
15693;SDS011;7947;48.834;9.132;2022-08-25T10:20:28;4.03;;;3.63;;
15693;SDS011;7947;48.834;9.132;2022-08-25T10:23:36;5.60;;;3.67;;
15693;SDS011;7947;48.834;9.132;2022-08-25T10:26:50;4.63;;;3.38;;
15693;SDS011;7947;48.834;9.132;2022-08-25T10:30:07;4.20;;;3.75;;
15693;SDS011;7947;48.834;9.132;2022-08-25T10:33:20;4.10;;;3.70;;
15693;SDS011;7947;48.834;9.132;2022-08-25T10:36:38;5.55;;;4.00;;
15693;SDS011;7947;48.834;9.132;2022-08-25T10:39:52;5.00;;;4.00;;
15693;SDS011;7947;48.834;9.132;2022-08-25T10:43:05;4.03;;;3.70;;
15693;SDS011;7947;48.834;9.132;2022-08-25T10:46:13;6.18;;;4.25;;
15693;SDS011;7947;48.834;9.132;2022-08-25T10:49:22;4.35;;;3.95;;
15693;SDS011;7947;48.834;9.132;2022-08-25T10:52:36;6.07;;;3.88;;
15693;SDS011;7947;48.834;9.132;2022-08-25T10:55:47;4.90;;;3.38;;
15693;SDS011;7947;48.834;9.132;2022-08-25T10:59:04;5.38;;;3.72;;
15693;SDS011;7947;48.834;9.132;2022-08-25T11:06:03;4.32;;;3.90;;
15693;SDS011;7947;48.834;9.132;2022-08-25T11:09:11;4.88;;;3.97;;
15693;SDS011;7947;48.834;9.132;2022-08-25T11:12:20;4.85;;;3.35;;
15693;SDS011;7947;48.834;9.132;2022-08-25T11:15:35;4.18;;;3.78;;
15693;SDS011;7947;48.834;9.132;2022-08-25T11:19:04;6.97;;;3.65;;
15693;SDS011;7947;48.834;9.132;2022-08-25T11:22:14;4.20;;;3.80;;
15693;SDS011;7947;48.834;9.132;2022-08-25T11:25:23;4.15;;;3.75;;
15693;SDS011;7947;48.834;9.132;2022-08-25T11:28:34;4.35;;;3.85;;
15693;SDS011;7947;48.834;9.132;2022-08-25T11:31:46;5.38;;;3.72;;
15693;SDS011;7947;48.834;9.132;2022-08-25T11:34:54;4.38;;;3.70;;
15693;SDS011;7947;48.834;9.132;2022-08-25T11:38:04;5.55;;;3.85;;
15693;SDS011;7947;48.834;9.132;2022-08-25T11:41:23;4.28;;;3.88;;
15693;SDS011;7947;48.834;9.132;2022-08-25T11:44:43;4.53;;;3.70;;
15693;SDS011;7947;48.834;9.132;2022-08-25T11:48:07;5.05;;;3.60;;
15693;SDS011;7947;48.834;9.132;2022-08-25T11:51:26;4.28;;;3.50;;
15693;SDS011;7947;48.834;9.132;2022-08-25T11:54:34;3.75;;;3.45;;
15693;SDS011;7947;48.834;9.132;2022-08-25T11:57:42;3.35;;;3.05;;
15693;SDS011;7947;48.834;9.132;2022-08-25T12:00:54;5.88;;;3.50;;
15693;SDS011;7947;48.834;9.132;2022-08-25T12:04:11;3.55;;;3.25;;
15693;SDS011;7947;48.834;9.132;2022-08-25T12:07:18;3.50;;;3.15;;
15693;SDS011;7947;48.834;9.132;2022-08-25T12:10:51;3.65;;;3.33;;
15693;SDS011;7947;48.834;9.132;2022-08-25T12:14:07;3.55;;;3.25;;
15693;SDS011;7947;48.834;9.132;2022-08-25T12:17:18;4.65;;;2.88;;
15693;SDS011;7947;48.834;9.132;2022-08-25T12:24:07;2.78;;;2.45;;
15693;SDS011;7947;48.834;9.132;2022-08-25T12:27:19;2.83;;;2.53;;
15693;SDS011;7947;48.834;9.132;2022-08-25T12:30:29;2.80;;;2.60;;
15693;SDS011;7947;48.834;9.132;2022-08-25T12:33:45;3.45;;;3.15;;
15693;SDS011;7947;48.834;9.132;2022-08-25T12:37:01;4.03;;;3.10;;
15693;SDS011;7947;48.834;9.132;2022-08-25T12:40:08;3.75;;;2.80;;
15693;SDS011;7947;48.834;9.132;2022-08-25T12:43:25;4.53;;;2.80;;
15693;SDS011;7947;48.834;9.132;2022-08-25T12:46:38;3.67;;;2.95;;
15693;SDS011;7947;48.834;9.132;2022-08-25T12:49:44;2.92;;;2.63;;
15693;SDS011;7947;48.834;9.132;2022-08-25T12:52:49;4.25;;;2.70;;
15693;SDS011;7947;48.834;9.132;2022-08-25T12:55:55;2.80;;;2.60;;
15693;SDS011;7947;48.834;9.132;2022-08-25T12:59:04;4.22;;;2.95;;
15693;SDS011;7947;48.834;9.132;2022-08-25T13:02:20;3.25;;;2.95;;
15693;SDS011;7947;48.834;9.132;2022-08-25T13:06:11;2.40;;;2.20;;
15693;SDS011;7947;48.834;9.132;2022-08-25T13:09:32;7.00;;;2.85;;
15693;SDS011;7947;48.834;9.132;2022-08-25T13:13:04;3.55;;;2.83;;
15693;SDS011;7947;48.834;9.132;2022-08-25T13:16:15;2.67;;;2.47;;
15693;SDS011;7947;48.834;9.132;2022-08-25T13:19:22;3.75;;;2.60;;
15693;SDS011;7947;48.834;9.132;2022-08-25T13:22:26;3.83;;;2.83;;
15693;SDS011;7947;48.834;9.132;2022-08-25T13:25:30;2.60;;;2.40;;
15693;SDS011;7947;48.834;9.132;2022-08-25T13:28:39;4.63;;;2.70;;
15693;SDS011;7947;48.834;9.132;2022-08-25T13:31:52;2.60;;;2.40;;
15693;SDS011;7947;48.834;9.132;2022-08-25T13:35:08;3.60;;;2.30;;
15693;SDS011;7947;48.834;9.132;2022-08-25T13:38:18;2.60;;;2.40;;
15693;SDS011;7947;48.834;9.132;2022-08-25T13:41:22;2.58;;;2.30;;
15693;SDS011;7947;48.834;9.132;2022-08-25T13:44:33;2.60;;;2.40;;
15693;SDS011;7947;48.834;9.132;2022-08-25T13:47:39;2.83;;;2.60;;
15693;SDS011;7947;48.834;9.132;2022-08-25T13:50:46;3.47;;;2.60;;
15693;SDS011;7947;48.834;9.132;2022-08-25T13:53:54;2.50;;;2.30;;
15693;SDS011;7947;48.834;9.132;2022-08-25T13:57:12;3.13;;;2.83;;
15693;SDS011;7947;48.834;9.132;2022-08-25T14:00:27;3.35;;;2.17;;
15693;SDS011;7947;48.834;9.132;2022-08-25T14:03:35;3.85;;;2.38;;
15693;SDS011;7947;48.834;9.132;2022-08-25T14:06:45;2.58;;;2.38;;
15693;SDS011;7947;48.834;9.132;2022-08-25T14:09:49;2.88;;;2.30;;
15693;SDS011;7947;48.834;9.132;2022-08-25T14:13:05;2.80;;;2.53;;
15693;SDS011;7947;48.834;9.132;2022-08-25T14:16:12;3.67;;;2.33;;
15693;SDS011;7947;48.834;9.132;2022-08-25T14:19:21;3.03;;;2.72;;
15693;SDS011;7947;48.834;9.132;2022-08-25T14:22:25;2.80;;;2.42;;
15693;SDS011;7947;48.834;9.132;2022-08-25T14:25:28;3.03;;;2.83;;
15693;SDS011;7947;48.834;9.132;2022-08-25T14:28:32;2.40;;;2.20;;
15693;SDS011;7947;48.834;9.132;2022-08-25T14:31:38;3.53;;;2.60;;
15693;SDS011;7947;48.834;9.132;2022-08-25T14:34:43;2.70;;;2.50;;
15693;SDS011;7947;48.834;9.132;2022-08-25T14:37:47;3.90;;;2.28;;
15693;SDS011;7947;48.834;9.132;2022-08-25T14:40:50;3.78;;;2.10;;
15693;SDS011;7947;48.834;9.132;2022-08-25T14:43:54;2.45;;;2.22;;
15693;SDS011;7947;48.834;9.132;2022-08-25T14:46:59;3.15;;;1.90;;
15693;SDS011;7947;48.834;9.132;2022-08-25T14:50:05;3.42;;;2.20;;
15693;SDS011;7947;48.834;9.132;2022-08-25T14:53:08;3.17;;;2.17;;
15693;SDS011;7947;48.834;9.132;2022-08-25T14:56:12;3.45;;;2.10;;
15693;SDS011;7947;48.834;9.132;2022-08-25T14:59:15;2.45;;;2.22;;
15693;SDS011;7947;48.834;9.132;2022-08-25T15:02:20;2.40;;;2.20;;
15693;SDS011;7947;48.834;9.132;2022-08-25T15:05:30;3.55;;;2.40;;
15693;SDS011;7947;48.834;9.132;2022-08-25T15:08:33;3.22;;;1.70;;
15693;SDS011;7947;48.834;9.132;2022-08-25T15:11:54;6.47;;;2.30;;
15693;SDS011;7947;48.834;9.132;2022-08-25T15:14:58;2.97;;;2.03;;
15693;SDS011;7947;48.834;9.132;2022-08-25T15:18:03;3.63;;;2.40;;
15693;SDS011;7947;48.834;9.132;2022-08-25T15:21:12;3.80;;;2.25;;
15693;SDS011;7947;48.834;9.132;2022-08-25T15:24:17;2.70;;;2.20;;
15693;SDS011;7947;48.834;9.132;2022-08-25T15:27:24;2.40;;;2.20;;
15693;SDS011;7947;48.834;9.132;2022-08-25T15:30:32;5.13;;;2.20;;
15693;SDS011;7947;48.834;9.132;2022-08-25T15:33:38;2.60;;;2.30;;
15693;SDS011;7947;48.834;9.132;2022-08-25T15:36:43;2.33;;;2.13;;
15693;SDS011;7947;48.834;9.132;2022-08-25T15:39:48;4.85;;;2.35;;
15693;SDS011;7947;48.834;9.132;2022-08-25T15:42:54;2.35;;;2.15;;
15693;SDS011;7947;48.834;9.132;2022-08-25T15:45:59;3.88;;;2.22;;
15693;SDS011;7947;48.834;9.132;2022-08-25T15:49:06;3.95;;;2.50;;
15693;SDS011;7947;48.834;9.132;2022-08-25T15:52:11;2.40;;;2.20;;
15693;SDS011;7947;48.834;9.132;2022-08-25T15:55:16;2.72;;;2.17;;
15693;SDS011;7947;48.834;9.132;2022-08-25T15:58:22;4.22;;;2.40;;
15693;SDS011;7947;48.834;9.132;2022-08-25T16:01:27;2.67;;;2.08;;
15693;SDS011;7947;48.834;9.132;2022-08-25T16:04:33;4.13;;;2.30;;
15693;SDS011;7947;48.834;9.132;2022-08-25T16:07:39;6.38;;;2.65;;
15693;SDS011;7947;48.834;9.132;2022-08-25T16:10:52;2.47;;;2.28;;
15693;SDS011;7947;48.834;9.132;2022-08-25T16:13:58;4.93;;;2.30;;
15693;SDS011;7947;48.834;9.132;2022-08-25T16:17:03;3.22;;;2.47;;
15693;SDS011;7947;48.834;9.132;2022-08-25T16:20:10;2.80;;;2.50;;
15693;SDS011;7947;48.834;9.132;2022-08-25T16:23:18;3.60;;;2.70;;
15693;SDS011;7947;48.834;9.132;2022-08-25T16:26:24;2.53;;;2.28;;
15693;SDS011;7947;48.834;9.132;2022-08-25T16:29:31;3.38;;;2.20;;
15693;SDS011;7947;48.834;9.132;2022-08-25T16:32:38;3.58;;;2.42;;
15693;SDS011;7947;48.834;9.132;2022-08-25T16:35:45;2.33;;;2.13;;
15693;SDS011;7947;48.834;9.132;2022-08-25T16:38:52;2.83;;;2.40;;
15693;SDS011;7947;48.834;9.132;2022-08-25T16:41:58;2.63;;;2.00;;
15693;SDS011;7947;48.834;9.132;2022-08-25T16:45:05;3.78;;;2.47;;
15693;SDS011;7947;48.834;9.132;2022-08-25T16:48:11;4.57;;;2.40;;
15693;SDS011;7947;48.834;9.132;2022-08-25T16:51:19;2.70;;;2.40;;
15693;SDS011;7947;48.834;9.132;2022-08-25T16:54:30;5.53;;;1.98;;
15693;SDS011;7947;48.834;9.132;2022-08-25T16:57:51;2.75;;;2.42;;
15693;SDS011;7947;48.834;9.132;2022-08-25T17:00:55;3.28;;;2.42;;
15693;SDS011;7947;48.834;9.132;2022-08-25T17:04:04;5.47;;;2.45;;
15693;SDS011;7947;48.834;9.132;2022-08-25T17:07:11;3.53;;;2.17;;
15693;SDS011;7947;48.834;9.132;2022-08-25T17:10:23;4.18;;;2.83;;
15693;SDS011;7947;48.834;9.132;2022-08-25T17:13:28;5.00;;;2.20;;
15693;SDS011;7947;48.834;9.132;2022-08-25T17:16:32;2.50;;;2.22;;
15693;SDS011;7947;48.834;9.132;2022-08-25T17:19:36;2.40;;;1.92;;
15693;SDS011;7947;48.834;9.132;2022-08-25T17:22:43;2.45;;;2.25;;
15693;SDS011;7947;48.834;9.132;2022-08-25T17:25:48;2.58;;;2.38;;
15693;SDS011;7947;48.834;9.132;2022-08-25T17:28:52;3.25;;;2.20;;
15693;SDS011;7947;48.834;9.132;2022-08-25T17:31:55;3.55;;;2.50;;
15693;SDS011;7947;48.834;9.132;2022-08-25T17:34:59;2.45;;;2.25;;
15693;SDS011;7947;48.834;9.132;2022-08-25T17:38:07;3.95;;;2.28;;
15693;SDS011;7947;48.834;9.132;2022-08-25T17:41:11;3.95;;;2.47;;
15693;SDS011;7947;48.834;9.132;2022-08-25T17:44:15;2.90;;;2.10;;
15693;SDS011;7947;48.834;9.132;2022-08-25T17:47:19;3.33;;;2.25;;
15693;SDS011;7947;48.834;9.132;2022-08-25T17:50:22;4.25;;;2.40;;
15693;SDS011;7947;48.834;9.132;2022-08-25T17:53:26;6.60;;;2.35;;
15693;SDS011;7947;48.834;9.132;2022-08-25T17:56:29;2.47;;;2.28;;
15693;SDS011;7947;48.834;9.132;2022-08-25T17:59:34;2.95;;;2.30;;
15693;SDS011;7947;48.834;9.132;2022-08-25T18:02:37;2.58;;;2.25;;
15693;SDS011;7947;48.834;9.132;2022-08-25T18:05:40;3.22;;;2.13;;
15693;SDS011;7947;48.834;9.132;2022-08-25T18:08:45;2.42;;;2.17;;
15693;SDS011;7947;48.834;9.132;2022-08-25T18:11:52;2.67;;;2.45;;
15693;SDS011;7947;48.834;9.132;2022-08-25T18:14:55;4.45;;;2.50;;
15693;SDS011;7947;48.834;9.132;2022-08-25T18:17:59;8.93;;;2.55;;
15693;SDS011;7947;48.834;9.132;2022-08-25T18:21:09;3.88;;;2.63;;
15693;SDS011;7947;48.834;9.132;2022-08-25T18:24:14;2.22;;;2.03;;
15693;SDS011;7947;48.834;9.132;2022-08-25T18:27:17;4.47;;;2.38;;
15693;SDS011;7947;48.834;9.132;2022-08-25T18:30:23;2.58;;;2.38;;
15693;SDS011;7947;48.834;9.132;2022-08-25T18:33:27;2.88;;;2.50;;
15693;SDS011;7947;48.834;9.132;2022-08-25T18:36:31;3.10;;;2.75;;
15693;SDS011;7947;48.834;9.132;2022-08-25T18:39:40;3.45;;;2.58;;
15693;SDS011;7947;48.834;9.132;2022-08-25T18:43:02;4.22;;;2.25;;
15693;SDS011;7947;48.834;9.132;2022-08-25T18:46:07;3.35;;;2.75;;
15693;SDS011;7947;48.834;9.132;2022-08-25T18:49:10;3.28;;;2.97;;
15693;SDS011;7947;48.834;9.132;2022-08-25T18:52:16;4.97;;;2.58;;
15693;SDS011;7947;48.834;9.132;2022-08-25T18:55:22;6.68;;;2.50;;
15693;SDS011;7947;48.834;9.132;2022-08-25T18:58:25;3.05;;;2.53;;
15693;SDS011;7947;48.834;9.132;2022-08-25T19:01:29;4.53;;;2.65;;
15693;SDS011;7947;48.834;9.132;2022-08-25T19:04:32;5.15;;;3.10;;
15693;SDS011;7947;48.834;9.132;2022-08-25T19:07:35;4.18;;;3.20;;
15693;SDS011;7947;48.834;9.132;2022-08-25T19:10:43;3.78;;;2.63;;
15693;SDS011;7947;48.834;9.132;2022-08-25T19:13:51;4.57;;;2.95;;